sensor_id;sensor_type;location;lat;lon;timestamp;pressure;altitude;pressure_sealevel;temperature;humidity
27358;BME280;14831;50.474;7.616;2023-12-04T00:00:51;97950;;;-2.8;78.8
27358;BME280;14831;50.474;7.616;2023-12-04T00:05:51;97940;;;-2.8;78.8
27358;BME280;14831;50.474;7.616;2023-12-04T00:10:52;97930;;;-2.8;78.9
27358;BME280;14831;50.474;7.616;2023-12-04T00:15:52;97920;;;-2.9;78.8
27358;BME280;14831;50.474;7.616;2023-12-04T00:20:52;97920;;;-2.9;79.1
27358;BME280;14831;50.474;7.616;2023-12-04T00:25:51;97910;;;-3.0;79.0
27358;BME280;14831;50.474;7.616;2023-12-04T00:30:52;97900;;;-3.0;79.1
27358;BME280;14831;50.474;7.616;2023-12-04T00:35:52;97900;;;-3.0;79.5
27358;BME280;14831;50.474;7.616;2023-12-04T00:40:52;97880;;;-3.0;79.2
27358;BME280;14831;50.474;7.616;2023-12-04T00:45:51;97880;;;-3.0;79.9
27358;BME280;14831;50.474;7.616;2023-12-04T00:50:52;97880;;;-3.0;80.0
27358;BME280;14831;50.474;7.616;2023-12-04T00:55:52;97870;;;-3.0;79.9
27358;BME280;14831;50.474;7.616;2023-12-04T01:00:52;97870;;;-3.1;79.2
27358;BME280;14831;50.474;7.616;2023-12-04T01:05:52;97860;;;-3.2;79.7
27358;BME280;14831;50.474;7.616;2023-12-04T01:10:52;97870;;;-3.2;80.1
27358;BME280;14831;50.474;7.616;2023-12-04T01:15:51;97880;;;-3.3;80.7
27358;BME280;14831;50.474;7.616;2023-12-04T01:20:52;97880;;;-3.3;81.2
27358;BME280;14831;50.474;7.616;2023-12-04T01:25:52;97870;;;-3.3;81.4
27358;BME280;14831;50.474;7.616;2023-12-04T01:30:51;97870;;;-3.2;81.6
27358;BME280;14831;50.474;7.616;2023-12-04T01:35:51;97870;;;-3.2;80.8
27358;BME280;14831;50.474;7.616;2023-12-04T01:40:52;97860;;;-3.2;81.0
27358;BME280;14831;50.474;7.616;2023-12-04T01:45:52;97850;;;-3.2;81.1
27358;BME280;14831;50.474;7.616;2023-12-04T01:50:52;97850;;;-3.2;81.3
27358;BME280;14831;50.474;7.616;2023-12-04T01:55:52;97840;;;-3.3;81.1
27358;BME280;14831;50.474;7.616;2023-12-04T02:00:51;97830;;;-3.3;81.1
27358;BME280;14831;50.474;7.616;2023-12-04T02:05:51;97830;;;-3.3;80.5
27358;BME280;14831;50.474;7.616;2023-12-04T02:10:51;97830;;;-3.3;80.4
27358;BME280;14831;50.474;7.616;2023-12-04T02:15:52;97820;;;-3.3;80.6
27358;BME280;14831;50.474;7.616;2023-12-04T02:20:52;97800;;;-3.4;80.7
27358;BME280;14831;50.474;7.616;2023-12-04T02:25:51;97810;;;-3.4;80.7
27358;BME280;14831;50.474;7.616;2023-12-04T02:30:51;97810;;;-3.5;81.1
27358;BME280;14831;50.474;7.616;2023-12-04T02:35:51;97800;;;-3.4;80.6
27358;BME280;14831;50.474;7.616;2023-12-04T02:40:52;97800;;;-3.4;80.9
27358;BME280;14831;50.474;7.616;2023-12-04T02:45:51;97790;;;-3.4;80.9
27358;BME280;14831;50.474;7.616;2023-12-04T02:50:52;97770;;;-3.4;80.8
27358;BME280;14831;50.474;7.616;2023-12-04T02:55:52;97760;;;-3.4;81.1
27358;BME280;14831;50.474;7.616;2023-12-04T03:00:51;97750;;;-3.4;80.9
27358;BME280;14831;50.474;7.616;2023-12-04T03:05:52;97740;;;-3.4;80.9
27358;BME280;14831;50.474;7.616;2023-12-04T03:10:51;97730;;;-3.4;81.2
27358;BME280;14831;50.474;7.616;2023-12-04T03:15:51;97720;;;-3.5;81.8
27358;BME280;14831;50.474;7.616;2023-12-04T03:20:52;97720;;;-3.5;81.7
27358;BME280;14831;50.474;7.616;2023-12-04T03:25:51;97720;;;-3.6;82.0
27358;BME280;14831;50.474;7.616;2023-12-04T03:30:51;97700;;;-3.5;82.4
27358;BME280;14831;50.474;7.616;2023-12-04T03:35:51;97710;;;-3.6;82.8
27358;BME280;14831;50.474;7.616;2023-12-04T03:40:52;97700;;;-3.7;83.1
27358;BME280;14831;50.474;7.616;2023-12-04T03:45:52;97700;;;-3.8;83.5
27358;BME280;14831;50.474;7.616;2023-12-04T03:50:51;97700;;;-3.8;84.0
27358;BME280;14831;50.474;7.616;2023-12-04T03:55:52;97700;;;-3.8;84.3
27358;BME280;14831;50.474;7.616;2023-12-04T04:00:51;97690;;;-3.8;84.5
27358;BME280;14831;50.474;7.616;2023-12-04T04:05:52;97690;;;-3.8;84.8
27358;BME280;14831;50.474;7.616;2023-12-04T04:10:52;97690;;;-3.8;85.2
27358;BME280;14831;50.474;7.616;2023-12-04T04:15:52;97680;;;-3.9;85.3
27358;BME280;14831;50.474;7.616;2023-12-04T04:20:51;97680;;;-4.0;85.3
27358;BME280;14831;50.474;7.616;2023-12-04T04:25:51;97700;;;-4.0;85.4
27358;BME280;14831;50.474;7.616;2023-12-04T04:30:52;97690;;;-3.9;85.2
27358;BME280;14831;50.474;7.616;2023-12-04T04:35:52;97680;;;-3.9;85.0
27358;BME280;14831;50.474;7.616;2023-12-04T04:40:52;97680;;;-3.9;85.3
27358;BME280;14831;50.474;7.616;2023-12-04T04:45:52;97670;;;-4.0;85.3
27358;BME280;14831;50.474;7.616;2023-12-04T04:50:51;97660;;;-4.0;85.2
27358;BME280;14831;50.474;7.616;2023-12-04T04:55:52;97660;;;-4.0;85.3
27358;BME280;14831;50.474;7.616;2023-12-04T05:00:51;97660;;;-4.0;85.2
27358;BME280;14831;50.474;7.616;2023-12-04T05:05:52;97660;;;-4.0;85.3
27358;BME280;14831;50.474;7.616;2023-12-04T05:10:52;97660;;;-4.0;85.3
27358;BME280;14831;50.474;7.616;2023-12-04T05:15:51;97640;;;-4.0;85.2
27358;BME280;14831;50.474;7.616;2023-12-04T05:20:52;97650;;;-4.1;85.4
27358;BME280;14831;50.474;7.616;2023-12-04T05:25:51;97640;;;-4.1;85.3
27358;BME280;14831;50.474;7.616;2023-12-04T05:30:51;97640;;;-4.1;85.2
27358;BME280;14831;50.474;7.616;2023-12-04T05:35:52;97640;;;-4.1;85.0
27358;BME280;14831;50.474;7.616;2023-12-04T05:40:52;97640;;;-4.1;84.7
27358;BME280;14831;50.474;7.616;2023-12-04T05:45:51;97630;;;-4.0;84.3
27358;BME280;14831;50.474;7.616;2023-12-04T05:50:52;97630;;;-4.0;84.4
27358;BME280;14831;50.474;7.616;2023-12-04T05:55:52;97620;;;-4.0;84.3
27358;BME280;14831;50.474;7.616;2023-12-04T06:00:52;97620;;;-4.0;84.4
27358;BME280;14831;50.474;7.616;2023-12-04T06:05:51;97620;;;-4.0;84.0
27358;BME280;14831;50.474;7.616;2023-12-04T06:10:51;97620;;;-4.0;84.2
27358;BME280;14831;50.474;7.616;2023-12-04T06:15:52;97610;;;-3.9;83.6
27358;BME280;14831;50.474;7.616;2023-12-04T06:20:52;97600;;;-3.9;84.3
27358;BME280;14831;50.474;7.616;2023-12-04T06:25:52;97590;;;-3.9;84.7
27358;BME280;14831;50.474;7.616;2023-12-04T06:30:52;97580;;;-4.0;85.0
27358;BME280;14831;50.474;7.616;2023-12-04T06:35:52;97580;;;-4.0;85.3
27358;BME280;14831;50.474;7.616;2023-12-04T06:40:52;97560;;;-4.0;85.8
27358;BME280;14831;50.474;7.616;2023-12-04T06:45:52;97560;;;-4.1;86.3
27358;BME280;14831;50.474;7.616;2023-12-04T06:50:51;97550;;;-4.1;86.8
27358;BME280;14831;50.474;7.616;2023-12-04T06:55:52;97540;;;-4.1;87.0
27358;BME280;14831;50.474;7.616;2023-12-04T07:00:52;97520;;;-4.2;87.0
27358;BME280;14831;50.474;7.616;2023-12-04T07:05:52;97500;;;-4.2;87.3
27358;BME280;14831;50.474;7.616;2023-12-04T07:10:52;97490;;;-4.2;87.2
27358;BME280;14831;50.474;7.616;2023-12-04T07:15:52;97500;;;-4.2;87.6
27358;BME280;14831;50.474;7.616;2023-12-04T07:20:51;97520;;;-4.3;87.5
27358;BME280;14831;50.474;7.616;2023-12-04T07:25:51;97510;;;-4.4;87.6
27358;BME280;14831;50.474;7.616;2023-12-04T07:30:51;97500;;;-4.2;87.8
27358;BME280;14831;50.474;7.616;2023-12-04T07:35:52;97500;;;-4.2;86.7
27358;BME280;14831;50.474;7.616;2023-12-04T07:40:51;97500;;;-4.1;86.1
27358;BME280;14831;50.474;7.616;2023-12-04T07:45:52;97500;;;-4.1;86.1
27358;BME280;14831;50.474;7.616;2023-12-04T07:50:51;97490;;;-4.0;86.1
27358;BME280;14831;50.474;7.616;2023-12-04T07:55:52;97490;;;-4.0;85.1
27358;BME280;14831;50.474;7.616;2023-12-04T08:00:51;97490;;;-4.0;85.3
27358;BME280;14831;50.474;7.616;2023-12-04T08:05:51;97500;;;-3.9;85.4
27358;BME280;14831;50.474;7.616;2023-12-04T08:10:52;97480;;;-3.9;85.1
27358;BME280;14831;50.474;7.616;2023-12-04T08:15:52;97470;;;-3.8;84.8
27358;BME280;14831;50.474;7.616;2023-12-04T08:20:51;97470;;;-3.7;84.8
27358;BME280;14831;50.474;7.616;2023-12-04T08:25:52;97450;;;-3.7;84.0
27358;BME280;14831;50.474;7.616;2023-12-04T08:30:53;97450;;;-3.7;83.4
27358;BME280;14831;50.474;7.616;2023-12-04T08:35:52;97460;;;-3.6;82.7
27358;BME280;14831;50.474;7.616;2023-12-04T08:40:53;97450;;;-3.6;82.1
27358;BME280;14831;50.474;7.616;2023-12-04T08:45:52;97450;;;-3.6;82.2
27358;BME280;14831;50.474;7.616;2023-12-04T08:50:52;97440;;;-3.7;82.2
27358;BME280;14831;50.474;7.616;2023-12-04T08:55:52;97440;;;-3.6;82.3
27358;BME280;14831;50.474;7.616;2023-12-04T09:00:52;97440;;;-3.5;81.5
27358;BME280;14831;50.474;7.616;2023-12-04T09:05:51;97440;;;-3.4;82.0
27358;BME280;14831;50.474;7.616;2023-12-04T09:10:51;97430;;;-3.4;82.3
27358;BME280;14831;50.474;7.616;2023-12-04T09:15:51;97420;;;-3.4;82.4
27358;BME280;14831;50.474;7.616;2023-12-04T09:20:51;97420;;;-3.4;82.7
27358;BME280;14831;50.474;7.616;2023-12-04T09:25:51;97420;;;-3.3;83.2
27358;BME280;14831;50.474;7.616;2023-12-04T09:30:51;97410;;;-3.3;83.0
27358;BME280;14831;50.474;7.616;2023-12-04T09:35:51;97430;;;-3.2;82.9
27358;BME280;14831;50.474;7.616;2023-12-04T09:40:51;97440;;;-3.2;82.6
27358;BME280;14831;50.474;7.616;2023-12-04T09:45:51;97420;;;-3.1;82.5
27358;BME280;14831;50.474;7.616;2023-12-04T09:50:51;97420;;;-3.1;82.2
27358;BME280;14831;50.474;7.616;2023-12-04T09:55:52;97410;;;-3.2;82.7
27358;BME280;14831;50.474;7.616;2023-12-04T10:00:52;97410;;;-3.2;82.7
27358;BME280;14831;50.474;7.616;2023-12-04T10:05:51;97420;;;-3.1;83.0
27358;BME280;14831;50.474;7.616;2023-12-04T10:10:51;97410;;;-3.1;82.5
27358;BME280;14831;50.474;7.616;2023-12-04T10:15:51;97400;;;-2.9;81.8
27358;BME280;14831;50.474;7.616;2023-12-04T10:20:52;97380;;;-2.8;82.0
27358;BME280;14831;50.474;7.616;2023-12-04T10:25:51;97370;;;-2.7;82.1
27358;BME280;14831;50.474;7.616;2023-12-04T10:30:51;97350;;;-2.7;82.7
27358;BME280;14831;50.474;7.616;2023-12-04T10:35:51;97340;;;-2.5;83.3
27358;BME280;14831;50.474;7.616;2023-12-04T10:40:52;97320;;;-2.4;83.9
27358;BME280;14831;50.474;7.616;2023-12-04T10:45:51;97320;;;-2.3;84.1
27358;BME280;14831;50.474;7.616;2023-12-04T10:50:51;97310;;;-2.3;83.6
27358;BME280;14831;50.474;7.616;2023-12-04T10:55:52;97310;;;-2.2;82.8
27358;BME280;14831;50.474;7.616;2023-12-04T11:00:52;97290;;;-2.2;83.8
27358;BME280;14831;50.474;7.616;2023-12-04T11:05:53;97290;;;-2.2;85.6
27358;BME280;14831;50.474;7.616;2023-12-04T11:10:53;97270;;;-2.3;87.6
27358;BME280;14831;50.474;7.616;2023-12-04T11:15:52;97260;;;-2.3;89.4
27358;BME280;14831;50.474;7.616;2023-12-04T11:20:53;97240;;;-2.3;89.7
27358;BME280;14831;50.474;7.616;2023-12-04T11:25:51;97230;;;-2.3;89.5
27358;BME280;14831;50.474;7.616;2023-12-04T11:30:51;97220;;;-2.4;89.6
27358;BME280;14831;50.474;7.616;2023-12-04T11:35:51;97210;;;-2.4;89.9
27358;BME280;14831;50.474;7.616;2023-12-04T11:40:51;97200;;;-2.4;90.2
27358;BME280;14831;50.474;7.616;2023-12-04T11:45:51;97200;;;-2.5;90.5
27358;BME280;14831;50.474;7.616;2023-12-04T11:50:51;97190;;;-2.5;90.8
27358;BME280;14831;50.474;7.616;2023-12-04T11:55:52;97180;;;-2.5;91.2
27358;BME280;14831;50.474;7.616;2023-12-04T12:00:52;97180;;;-2.6;91.3
27358;BME280;14831;50.474;7.616;2023-12-04T12:05:52;97160;;;-2.5;91.5
27358;BME280;14831;50.474;7.616;2023-12-04T12:10:52;97160;;;-2.5;91.6
27358;BME280;14831;50.474;7.616;2023-12-04T12:15:52;97160;;;-2.5;91.7
27358;BME280;14831;50.474;7.616;2023-12-04T12:20:54;97150;;;-2.6;91.8
27358;BME280;14831;50.474;7.616;2023-12-04T12:25:51;97140;;;-2.6;91.7
27358;BME280;14831;50.474;7.616;2023-12-04T12:30:51;97130;;;-2.7;91.8
27358;BME280;14831;50.474;7.616;2023-12-04T12:35:51;97120;;;-2.7;91.8
27358;BME280;14831;50.474;7.616;2023-12-04T12:40:51;97110;;;-2.7;92.1
27358;BME280;14831;50.474;7.616;2023-12-04T12:45:51;97100;;;-2.7;92.3
27358;BME280;14831;50.474;7.616;2023-12-04T12:50:51;97100;;;-2.8;92.7
27358;BME280;14831;50.474;7.616;2023-12-04T12:55:52;97090;;;-2.7;93.0
27358;BME280;14831;50.474;7.616;2023-12-04T13:00:51;97080;;;-2.7;93.2
27358;BME280;14831;50.474;7.616;2023-12-04T13:05:51;97070;;;-2.6;93.8
27358;BME280;14831;50.474;7.616;2023-12-04T13:10:52;97070;;;-2.5;94.2
27358;BME280;14831;50.474;7.616;2023-12-04T13:15:51;97070;;;-2.4;94.7
27358;BME280;14831;50.474;7.616;2023-12-04T13:20:51;97050;;;-2.4;95.4
27358;BME280;14831;50.474;7.616;2023-12-04T13:25:52;97040;;;-2.4;95.7
27358;BME280;14831;50.474;7.616;2023-12-04T13:30:51;97030;;;-2.4;95.6
27358;BME280;14831;50.474;7.616;2023-12-04T13:35:52;97030;;;-2.3;95.9
27358;BME280;14831;50.474;7.616;2023-12-04T13:40:52;97010;;;-2.3;95.9
27358;BME280;14831;50.474;7.616;2023-12-04T13:45:51;97010;;;-2.2;95.8
27358;BME280;14831;50.474;7.616;2023-12-04T13:50:51;97000;;;-2.2;95.4
27358;BME280;14831;50.474;7.616;2023-12-04T13:55:51;96990;;;-2.1;95.4
27358;BME280;14831;50.474;7.616;2023-12-04T14:00:51;96980;;;-2.0;95.0
27358;BME280;14831;50.474;7.616;2023-12-04T14:05:52;96970;;;-2.0;95.2
27358;BME280;14831;50.474;7.616;2023-12-04T14:10:51;96960;;;-1.9;95.0
27358;BME280;14831;50.474;7.616;2023-12-04T14:15:51;96960;;;-1.8;94.9
27358;BME280;14831;50.474;7.616;2023-12-04T14:20:51;96940;;;-1.8;94.5
27358;BME280;14831;50.474;7.616;2023-12-04T14:25:51;96930;;;-1.8;94.3
27358;BME280;14831;50.474;7.616;2023-12-04T14:30:51;96940;;;-1.8;94.2
27358;BME280;14831;50.474;7.616;2023-12-04T14:35:51;96930;;;-1.8;94.3
27358;BME280;14831;50.474;7.616;2023-12-04T14:40:52;96910;;;-1.8;94.5
27358;BME280;14831;50.474;7.616;2023-12-04T14:45:51;96920;;;-1.8;94.4
27358;BME280;14831;50.474;7.616;2023-12-04T14:50:51;96920;;;-1.9;94.1
27358;BME280;14831;50.474;7.616;2023-12-04T14:55:51;96930;;;-2.0;94.1
27358;BME280;14831;50.474;7.616;2023-12-04T15:00:51;96910;;;-1.9;94.9
27358;BME280;14831;50.474;7.616;2023-12-04T15:05:51;96910;;;-1.8;95.0
27358;BME280;14831;50.474;7.616;2023-12-04T15:10:51;96910;;;-1.8;94.9
27358;BME280;14831;50.474;7.616;2023-12-04T15:15:51;96910;;;-1.8;94.9
27358;BME280;14831;50.474;7.616;2023-12-04T15:20:52;96900;;;-1.8;95.0
27358;BME280;14831;50.474;7.616;2023-12-04T15:25:51;96900;;;-1.8;94.9
27358;BME280;14831;50.474;7.616;2023-12-04T15:30:51;96880;;;-1.8;94.9
27358;BME280;14831;50.474;7.616;2023-12-04T15:35:51;96880;;;-1.8;94.9
27358;BME280;14831;50.474;7.616;2023-12-04T15:40:51;96880;;;-1.8;94.8
27358;BME280;14831;50.474;7.616;2023-12-04T15:45:51;96870;;;-1.8;95.5
27358;BME280;14831;50.474;7.616;2023-12-04T15:50:51;96870;;;-1.8;95.7
27358;BME280;14831;50.474;7.616;2023-12-04T15:55:52;96860;;;-1.7;96.0
27358;BME280;14831;50.474;7.616;2023-12-04T16:00:52;96860;;;-1.7;96.1
27358;BME280;14831;50.474;7.616;2023-12-04T16:05:51;96860;;;-1.6;96.1
27358;BME280;14831;50.474;7.616;2023-12-04T16:10:51;96860;;;-1.6;96.3
27358;BME280;14831;50.474;7.616;2023-12-04T16:15:52;96850;;;-1.6;95.9
27358;BME280;14831;50.474;7.616;2023-12-04T16:20:51;96840;;;-1.7;95.7
27358;BME280;14831;50.474;7.616;2023-12-04T16:25:51;96830;;;-1.7;95.8
27358;BME280;14831;50.474;7.616;2023-12-04T16:30:51;96840;;;-1.7;95.9
27358;BME280;14831;50.474;7.616;2023-12-04T16:35:51;96820;;;-1.6;95.8
27358;BME280;14831;50.474;7.616;2023-12-04T16:40:51;96820;;;-1.6;95.8
27358;BME280;14831;50.474;7.616;2023-12-04T16:45:51;96830;;;-1.7;95.6
27358;BME280;14831;50.474;7.616;2023-12-04T16:50:51;96820;;;-1.8;95.4
27358;BME280;14831;50.474;7.616;2023-12-04T16:55:52;96810;;;-1.8;95.5
27358;BME280;14831;50.474;7.616;2023-12-04T17:00:53;96810;;;-1.8;95.5
27358;BME280;14831;50.474;7.616;2023-12-04T17:05:51;96800;;;-1.8;95.7
27358;BME280;14831;50.474;7.616;2023-12-04T17:10:51;96790;;;-1.6;96.7
27358;BME280;14831;50.474;7.616;2023-12-04T17:15:51;96790;;;-1.6;96.7
27358;BME280;14831;50.474;7.616;2023-12-04T17:20:51;96780;;;-1.6;96.8
27358;BME280;14831;50.474;7.616;2023-12-04T17:25:51;96800;;;-1.6;96.9
27358;BME280;14831;50.474;7.616;2023-12-04T17:30:51;96790;;;-1.5;96.8
27358;BME280;14831;50.474;7.616;2023-12-04T17:35:52;96790;;;-1.6;96.7
27358;BME280;14831;50.474;7.616;2023-12-04T17:40:51;96770;;;-1.6;96.5
27358;BME280;14831;50.474;7.616;2023-12-04T17:45:51;96780;;;-1.6;96.5
27358;BME280;14831;50.474;7.616;2023-12-04T17:50:51;96760;;;-1.7;96.5
27358;BME280;14831;50.474;7.616;2023-12-04T17:55:51;96760;;;-1.8;96.5
27358;BME280;14831;50.474;7.616;2023-12-04T18:00:51;96750;;;-1.8;96.7
27358;BME280;14831;50.474;7.616;2023-12-04T18:05:51;96740;;;-1.8;96.9
27358;BME280;14831;50.474;7.616;2023-12-04T18:10:51;96740;;;-1.8;97.1
27358;BME280;14831;50.474;7.616;2023-12-04T18:15:51;96730;;;-1.8;97.3
27358;BME280;14831;50.474;7.616;2023-12-04T18:20:51;96730;;;-1.8;97.6
27358;BME280;14831;50.474;7.616;2023-12-04T18:25:52;96720;;;-1.8;97.9
27358;BME280;14831;50.474;7.616;2023-12-04T18:30:52;96700;;;-1.7;98.1
27358;BME280;14831;50.474;7.616;2023-12-04T18:35:52;96700;;;-1.7;98.4
27358;BME280;14831;50.474;7.616;2023-12-04T18:40:52;96690;;;-1.7;98.6
27358;BME280;14831;50.474;7.616;2023-12-04T18:45:52;96690;;;-1.6;98.6
27358;BME280;14831;50.474;7.616;2023-12-04T18:50:52;96700;;;-1.6;98.9
27358;BME280;14831;50.474;7.616;2023-12-04T18:55:52;96700;;;-1.5;99.0
27358;BME280;14831;50.474;7.616;2023-12-04T19:00:51;96700;;;-1.5;99.1
27358;BME280;14831;50.474;7.616;2023-12-04T19:05:51;96690;;;-1.5;99.1
27358;BME280;14831;50.474;7.616;2023-12-04T19:10:51;96680;;;-1.5;99.2
27358;BME280;14831;50.474;7.616;2023-12-04T19:15:51;96670;;;-1.5;99.2
27358;BME280;14831;50.474;7.616;2023-12-04T19:20:51;96660;;;-1.4;99.4
27358;BME280;14831;50.474;7.616;2023-12-04T19:25:51;96660;;;-1.3;99.6
27358;BME280;14831;50.474;7.616;2023-12-04T19:30:51;96660;;;-1.3;99.7
27358;BME280;14831;50.474;7.616;2023-12-04T19:35:51;96650;;;-1.3;99.7
27358;BME280;14831;50.474;7.616;2023-12-04T19:40:51;96650;;;-1.3;99.7
27358;BME280;14831;50.474;7.616;2023-12-04T19:45:51;96650;;;-1.3;99.9
27358;BME280;14831;50.474;7.616;2023-12-04T19:50:51;96650;;;-1.2;99.8
27358;BME280;14831;50.474;7.616;2023-12-04T19:55:52;96640;;;-1.2;99.9
27358;BME280;14831;50.474;7.616;2023-12-04T20:00:51;96630;;;-1.2;99.9
27358;BME280;14831;50.474;7.616;2023-12-04T20:05:51;96630;;;-1.2;99.9
27358;BME280;14831;50.474;7.616;2023-12-04T20:10:52;96630;;;-1.1;100.0
27358;BME280;14831;50.474;7.616;2023-12-04T20:15:51;96630;;;-1.0;100.0
27358;BME280;14831;50.474;7.616;2023-12-04T20:20:51;96630;;;-0.9;100.0
27358;BME280;14831;50.474;7.616;2023-12-04T20:25:51;96620;;;-1.0;100.0
27358;BME280;14831;50.474;7.616;2023-12-04T20:30:52;96610;;;-1.0;100.0
27358;BME280;14831;50.474;7.616;2023-12-04T20:35:52;96610;;;-1.0;100.0
27358;BME280;14831;50.474;7.616;2023-12-04T20:40:51;96610;;;-1.0;100.0
27358;BME280;14831;50.474;7.616;2023-12-04T20:45:51;96590;;;-1.0;100.0
27358;BME280;14831;50.474;7.616;2023-12-04T20:50:52;96580;;;-0.9;100.0
27358;BME280;14831;50.474;7.616;2023-12-04T20:55:52;96590;;;-0.9;100.0
27358;BME280;14831;50.474;7.616;2023-12-04T21:00:51;96580;;;-0.9;100.0
27358;BME280;14831;50.474;7.616;2023-12-04T21:05:51;96580;;;-0.9;100.0
27358;BME280;14831;50.474;7.616;2023-12-04T21:10:51;96570;;;-0.8;100.0
27358;BME280;14831;50.474;7.616;2023-12-04T21:15:51;96570;;;-0.8;100.0
27358;BME280;14831;50.474;7.616;2023-12-04T21:20:51;96560;;;-0.8;100.0
27358;BME280;14831;50.474;7.616;2023-12-04T21:25:51;96550;;;-0.8;100.0
27358;BME280;14831;50.474;7.616;2023-12-04T21:30:52;96570;;;-0.7;100.0
27358;BME280;14831;50.474;7.616;2023-12-04T21:35:52;96560;;;-0.7;100.0
27358;BME280;14831;50.474;7.616;2023-12-04T21:40:51;96560;;;-0.7;100.0
27358;BME280;14831;50.474;7.616;2023-12-04T21:45:51;96550;;;-0.7;100.0
27358;BME280;14831;50.474;7.616;2023-12-04T21:50:52;96550;;;-0.7;100.0
27358;BME280;14831;50.474;7.616;2023-12-04T21:55:52;96540;;;-0.7;100.0
27358;BME280;14831;50.474;7.616;2023-12-04T22:00:51;96540;;;-0.6;100.0
27358;BME280;14831;50.474;7.616;2023-12-04T22:05:51;96530;;;-0.6;100.0
27358;BME280;14831;50.474;7.616;2023-12-04T22:10:52;96520;;;-0.6;100.0
27358;BME280;14831;50.474;7.616;2023-12-04T22:15:51;96520;;;-0.6;100.0
27358;BME280;14831;50.474;7.616;2023-12-04T22:20:51;96520;;;-0.6;100.0
27358;BME280;14831;50.474;7.616;2023-12-04T22:25:52;96520;;;-0.6;100.0
27358;BME280;14831;50.474;7.616;2023-12-04T22:30:51;96510;;;-0.5;100.0
27358;BME280;14831;50.474;7.616;2023-12-04T22:35:51;96510;;;-0.5;100.0
27358;BME280;14831;50.474;7.616;2023-12-04T22:40:52;96500;;;-0.5;100.0
27358;BME280;14831;50.474;7.616;2023-12-04T22:45:51;96500;;;-0.5;100.0
27358;BME280;14831;50.474;7.616;2023-12-04T22:50:51;96500;;;-0.2;100.0
27358;BME280;14831;50.474;7.616;2023-12-04T22:55:52;96500;;;0.1;100.0
27358;BME280;14831;50.474;7.616;2023-12-04T23:00:51;96490;;;0.3;100.0
27358;BME280;14831;50.474;7.616;2023-12-04T23:05:51;96490;;;0.3;100.0
27358;BME280;14831;50.474;7.616;2023-12-04T23:10:51;96480;;;0.3;100.0
27358;BME280;14831;50.474;7.616;2023-12-04T23:15:51;96500;;;0.4;100.0
27358;BME280;14831;50.474;7.616;2023-12-04T23:20:51;96480;;;0.4;100.0
27358;BME280;14831;50.474;7.616;2023-12-04T23:25:51;96480;;;0.4;100.0
27358;BME280;14831;50.474;7.616;2023-12-04T23:30:51;96470;;;0.4;100.0
27358;BME280;14831;50.474;7.616;2023-12-04T23:35:51;96470;;;0.4;100.0
27358;BME280;14831;50.474;7.616;2023-12-04T23:40:51;96470;;;0.4;100.0
27358;BME280;14831;50.474;7.616;2023-12-04T23:45:51;96460;;;0.4;100.0
27358;BME280;14831;50.474;7.616;2023-12-04T23:50:52;96450;;;0.5;100.0
27358;BME280;14831;50.474;7.616;2023-12-04T23:55:52;96440;;;0.5;100.0
